sensor_id;sensor_type;location;lat;lon;timestamp;P1;durP1;ratioP1;P2;durP2;ratioP2
15818;SDS011;8010;53.986;12.106;2023-02-11T00:02:06;15.57;;;8.33;;
15818;SDS011;8010;53.986;12.106;2023-02-11T00:04:32;19.37;;;10.03;;
15818;SDS011;8010;53.986;12.106;2023-02-11T00:06:58;19.23;;;10.20;;
15818;SDS011;8010;53.986;12.106;2023-02-11T00:09:23;18.37;;;9.97;;
15818;SDS011;8010;53.986;12.106;2023-02-11T00:11:49;17.63;;;8.73;;
15818;SDS011;8010;53.986;12.106;2023-02-11T00:14:14;13.23;;;7.73;;
15818;SDS011;8010;53.986;12.106;2023-02-11T00:16:40;22.23;;;10.43;;
15818;SDS011;8010;53.986;12.106;2023-02-11T00:19:05;21.80;;;11.00;;
15818;SDS011;8010;53.986;12.106;2023-02-11T00:21:31;20.17;;;8.63;;
15818;SDS011;8010;53.986;12.106;2023-02-11T00:23:58;21.13;;;11.13;;
15818;SDS011;8010;53.986;12.106;2023-02-11T00:26:27;25.87;;;10.80;;
15818;SDS011;8010;53.986;12.106;2023-02-11T00:28:55;22.50;;;10.87;;
15818;SDS011;8010;53.986;12.106;2023-02-11T00:31:21;21.80;;;10.53;;
15818;SDS011;8010;53.986;12.106;2023-02-11T00:33:47;23.47;;;11.07;;
15818;SDS011;8010;53.986;12.106;2023-02-11T00:36:14;22.77;;;11.30;;
15818;SDS011;8010;53.986;12.106;2023-02-11T00:38:42;20.67;;;11.00;;
15818;SDS011;8010;53.986;12.106;2023-02-11T00:41:09;19.70;;;9.80;;
15818;SDS011;8010;53.986;12.106;2023-02-11T00:43:35;19.33;;;10.30;;
15818;SDS011;8010;53.986;12.106;2023-02-11T00:46:01;19.53;;;10.67;;
15818;SDS011;8010;53.986;12.106;2023-02-11T00:48:27;14.20;;;6.83;;
15818;SDS011;8010;53.986;12.106;2023-02-11T00:50:52;19.50;;;10.47;;
15818;SDS011;8010;53.986;12.106;2023-02-11T00:53:18;16.97;;;9.67;;
15818;SDS011;8010;53.986;12.106;2023-02-11T00:55:44;16.10;;;9.47;;
15818;SDS011;8010;53.986;12.106;2023-02-11T00:58:09;16.67;;;9.97;;
15818;SDS011;8010;53.986;12.106;2023-02-11T01:00:35;19.13;;;10.07;;
15818;SDS011;8010;53.986;12.106;2023-02-11T01:03:00;19.27;;;9.80;;
15818;SDS011;8010;53.986;12.106;2023-02-11T01:05:26;15.00;;;9.37;;
15818;SDS011;8010;53.986;12.106;2023-02-11T01:07:52;27.20;;;11.23;;
15818;SDS011;8010;53.986;12.106;2023-02-11T01:10:18;21.23;;;10.37;;
15818;SDS011;8010;53.986;12.106;2023-02-11T01:12:44;15.43;;;8.73;;
15818;SDS011;8010;53.986;12.106;2023-02-11T01:15:10;18.63;;;9.37;;
15818;SDS011;8010;53.986;12.106;2023-02-11T01:17:38;19.10;;;10.53;;
15818;SDS011;8010;53.986;12.106;2023-02-11T01:20:04;16.83;;;9.97;;
15818;SDS011;8010;53.986;12.106;2023-02-11T01:22:35;19.60;;;10.13;;
15818;SDS011;8010;53.986;12.106;2023-02-11T01:25:03;21.13;;;10.87;;
15818;SDS011;8010;53.986;12.106;2023-02-11T01:27:30;19.70;;;9.20;;
15818;SDS011;8010;53.986;12.106;2023-02-11T01:29:55;15.13;;;7.43;;
15818;SDS011;8010;53.986;12.106;2023-02-11T01:32:21;23.70;;;11.50;;
15818;SDS011;8010;53.986;12.106;2023-02-11T01:34:46;19.63;;;10.60;;
15818;SDS011;8010;53.986;12.106;2023-02-11T01:37:12;20.97;;;11.10;;
15818;SDS011;8010;53.986;12.106;2023-02-11T01:39:38;19.77;;;9.03;;
15818;SDS011;8010;53.986;12.106;2023-02-11T01:42:03;18.17;;;10.53;;
15818;SDS011;8010;53.986;12.106;2023-02-11T01:44:31;18.73;;;10.63;;
15818;SDS011;8010;53.986;12.106;2023-02-11T01:46:59;20.23;;;10.73;;
15818;SDS011;8010;53.986;12.106;2023-02-11T01:49:26;20.63;;;11.77;;
15818;SDS011;8010;53.986;12.106;2023-02-11T01:54:24;24.47;;;11.27;;
15818;SDS011;8010;53.986;12.106;2023-02-11T01:57:12;16.03;;;9.87;;
15818;SDS011;8010;53.986;12.106;2023-02-11T02:05:38;18.70;;;10.37;;
15818;SDS011;8010;53.986;12.106;2023-02-11T02:10:59;18.07;;;11.00;;
15818;SDS011;8010;53.986;12.106;2023-02-11T02:13:25;18.43;;;11.87;;
15818;SDS011;8010;53.986;12.106;2023-02-11T02:15:56;22.40;;;11.73;;
15818;SDS011;8010;53.986;12.106;2023-02-11T02:18:28;17.37;;;10.53;;
15818;SDS011;8010;53.986;12.106;2023-02-11T02:26:42;22.60;;;10.73;;
15818;SDS011;8010;53.986;12.106;2023-02-11T02:37:50;14.63;;;8.87;;
15818;SDS011;8010;53.986;12.106;2023-02-11T02:40:25;15.67;;;9.23;;
15818;SDS011;8010;53.986;12.106;2023-02-11T02:42:54;19.77;;;11.03;;
15818;SDS011;8010;53.986;12.106;2023-02-11T02:45:21;21.43;;;11.43;;
15818;SDS011;8010;53.986;12.106;2023-02-11T02:47:47;23.30;;;10.90;;
15818;SDS011;8010;53.986;12.106;2023-02-11T02:50:13;15.83;;;7.90;;
15818;SDS011;8010;53.986;12.106;2023-02-11T02:52:45;20.03;;;10.60;;
15818;SDS011;8010;53.986;12.106;2023-02-11T02:55:48;22.60;;;11.67;;
15818;SDS011;8010;53.986;12.106;2023-02-11T03:01:30;22.20;;;12.13;;
15818;SDS011;8010;53.986;12.106;2023-02-11T03:06:50;25.90;;;12.57;;
15818;SDS011;8010;53.986;12.106;2023-02-11T03:09:30;23.03;;;12.33;;
15818;SDS011;8010;53.986;12.106;2023-02-11T03:12:01;18.93;;;10.37;;
15818;SDS011;8010;53.986;12.106;2023-02-11T03:14:27;21.67;;;10.97;;
15818;SDS011;8010;53.986;12.106;2023-02-11T03:16:54;24.07;;;12.67;;
15818;SDS011;8010;53.986;12.106;2023-02-11T03:19:32;21.23;;;9.67;;
15818;SDS011;8010;53.986;12.106;2023-02-11T03:22:04;17.53;;;8.93;;
15818;SDS011;8010;53.986;12.106;2023-02-11T03:24:36;20.57;;;11.70;;
15818;SDS011;8010;53.986;12.106;2023-02-11T03:30:00;23.57;;;12.23;;
15818;SDS011;8010;53.986;12.106;2023-02-11T03:32:45;22.60;;;12.57;;
15818;SDS011;8010;53.986;12.106;2023-02-11T03:37:52;22.40;;;10.40;;
15818;SDS011;8010;53.986;12.106;2023-02-11T03:40:37;20.70;;;10.53;;
15818;SDS011;8010;53.986;12.106;2023-02-11T03:43:09;26.37;;;11.37;;
15818;SDS011;8010;53.986;12.106;2023-02-11T03:45:41;27.30;;;12.47;;
15818;SDS011;8010;53.986;12.106;2023-02-11T03:48:11;22.17;;;12.60;;
15818;SDS011;8010;53.986;12.106;2023-02-11T03:50:41;23.87;;;11.90;;
15818;SDS011;8010;53.986;12.106;2023-02-11T03:53:09;29.50;;;14.30;;
15818;SDS011;8010;53.986;12.106;2023-02-11T03:55:37;23.10;;;10.97;;
15818;SDS011;8010;53.986;12.106;2023-02-11T03:58:03;25.60;;;13.77;;
15818;SDS011;8010;53.986;12.106;2023-02-11T04:00:30;23.90;;;12.07;;
15818;SDS011;8010;53.986;12.106;2023-02-11T04:03:00;25.70;;;12.20;;
15818;SDS011;8010;53.986;12.106;2023-02-11T04:05:26;27.43;;;12.57;;
15818;SDS011;8010;53.986;12.106;2023-02-11T04:07:52;25.50;;;11.17;;
15818;SDS011;8010;53.986;12.106;2023-02-11T04:10:18;24.00;;;12.17;;
15818;SDS011;8010;53.986;12.106;2023-02-11T04:12:43;34.77;;;14.33;;
15818;SDS011;8010;53.986;12.106;2023-02-11T04:15:09;24.70;;;12.40;;
15818;SDS011;8010;53.986;12.106;2023-02-11T04:17:34;27.50;;;12.50;;
15818;SDS011;8010;53.986;12.106;2023-02-11T04:20:00;23.83;;;12.60;;
15818;SDS011;8010;53.986;12.106;2023-02-11T04:22:26;26.97;;;13.03;;
15818;SDS011;8010;53.986;12.106;2023-02-11T04:24:51;30.20;;;13.27;;
15818;SDS011;8010;53.986;12.106;2023-02-11T04:27:17;23.27;;;11.87;;
15818;SDS011;8010;53.986;12.106;2023-02-11T04:29:42;22.27;;;11.83;;
15818;SDS011;8010;53.986;12.106;2023-02-11T04:32:08;18.17;;;9.73;;
15818;SDS011;8010;53.986;12.106;2023-02-11T04:34:35;20.37;;;10.87;;
15818;SDS011;8010;53.986;12.106;2023-02-11T04:37:00;25.50;;;11.23;;
15818;SDS011;8010;53.986;12.106;2023-02-11T04:39:26;20.10;;;12.17;;
15818;SDS011;8010;53.986;12.106;2023-02-11T04:41:51;25.87;;;12.67;;
15818;SDS011;8010;53.986;12.106;2023-02-11T04:44:17;23.50;;;11.27;;
15818;SDS011;8010;53.986;12.106;2023-02-11T04:46:42;24.30;;;11.30;;
15818;SDS011;8010;53.986;12.106;2023-02-11T04:49:10;16.97;;;9.70;;
15818;SDS011;8010;53.986;12.106;2023-02-11T04:51:38;23.20;;;11.80;;
15818;SDS011;8010;53.986;12.106;2023-02-11T04:54:03;31.73;;;12.27;;
15818;SDS011;8010;53.986;12.106;2023-02-11T04:56:29;23.63;;;11.80;;
15818;SDS011;8010;53.986;12.106;2023-02-11T04:58:54;24.97;;;12.37;;
15818;SDS011;8010;53.986;12.106;2023-02-11T05:01:20;22.77;;;10.70;;
15818;SDS011;8010;53.986;12.106;2023-02-11T05:03:45;21.03;;;10.53;;
15818;SDS011;8010;53.986;12.106;2023-02-11T05:06:11;21.17;;;10.37;;
15818;SDS011;8010;53.986;12.106;2023-02-11T05:08:37;19.33;;;11.77;;
15818;SDS011;8010;53.986;12.106;2023-02-11T05:11:03;24.60;;;12.43;;
15818;SDS011;8010;53.986;12.106;2023-02-11T05:13:29;19.00;;;8.97;;
15818;SDS011;8010;53.986;12.106;2023-02-11T05:15:55;24.20;;;12.37;;
15818;SDS011;8010;53.986;12.106;2023-02-11T05:18:20;20.17;;;11.03;;
15818;SDS011;8010;53.986;12.106;2023-02-11T05:20:46;19.87;;;8.77;;
15818;SDS011;8010;53.986;12.106;2023-02-11T05:23:12;21.37;;;10.50;;
15818;SDS011;8010;53.986;12.106;2023-02-11T05:25:37;23.80;;;11.20;;
15818;SDS011;8010;53.986;12.106;2023-02-11T05:28:03;24.47;;;11.73;;
15818;SDS011;8010;53.986;12.106;2023-02-11T05:30:29;16.70;;;9.77;;
15818;SDS011;8010;53.986;12.106;2023-02-11T05:32:55;22.60;;;11.00;;
15818;SDS011;8010;53.986;12.106;2023-02-11T05:35:21;19.83;;;9.67;;
15818;SDS011;8010;53.986;12.106;2023-02-11T05:37:47;20.03;;;10.13;;
15818;SDS011;8010;53.986;12.106;2023-02-11T05:40:13;16.60;;;9.53;;
15818;SDS011;8010;53.986;12.106;2023-02-11T05:42:38;22.53;;;10.60;;
15818;SDS011;8010;53.986;12.106;2023-02-11T05:45:04;16.97;;;8.87;;
15818;SDS011;8010;53.986;12.106;2023-02-11T05:47:31;20.47;;;10.07;;
15818;SDS011;8010;53.986;12.106;2023-02-11T05:49:56;23.40;;;11.43;;
15818;SDS011;8010;53.986;12.106;2023-02-11T05:52:22;23.13;;;11.60;;
15818;SDS011;8010;53.986;12.106;2023-02-11T05:54:48;18.43;;;11.17;;
15818;SDS011;8010;53.986;12.106;2023-02-11T05:57:14;22.27;;;10.87;;
15818;SDS011;8010;53.986;12.106;2023-02-11T05:59:40;16.87;;;9.83;;
15818;SDS011;8010;53.986;12.106;2023-02-11T06:02:06;17.53;;;9.43;;
15818;SDS011;8010;53.986;12.106;2023-02-11T06:04:32;20.87;;;9.27;;
15818;SDS011;8010;53.986;12.106;2023-02-11T06:06:58;16.90;;;9.20;;
15818;SDS011;8010;53.986;12.106;2023-02-11T06:09:24;22.93;;;10.40;;
15818;SDS011;8010;53.986;12.106;2023-02-11T06:11:50;16.80;;;9.60;;
15818;SDS011;8010;53.986;12.106;2023-02-11T06:14:15;16.83;;;8.97;;
15818;SDS011;8010;53.986;12.106;2023-02-11T06:16:41;18.40;;;9.73;;
15818;SDS011;8010;53.986;12.106;2023-02-11T06:19:06;22.10;;;9.60;;
15818;SDS011;8010;53.986;12.106;2023-02-11T06:21:32;25.10;;;9.93;;
15818;SDS011;8010;53.986;12.106;2023-02-11T06:23:58;17.17;;;8.63;;
15818;SDS011;8010;53.986;12.106;2023-02-11T06:26:23;13.30;;;8.63;;
15818;SDS011;8010;53.986;12.106;2023-02-11T06:28:49;19.67;;;10.07;;
15818;SDS011;8010;53.986;12.106;2023-02-11T06:31:14;19.87;;;10.40;;
15818;SDS011;8010;53.986;12.106;2023-02-11T06:33:41;20.03;;;9.57;;
15818;SDS011;8010;53.986;12.106;2023-02-11T06:36:16;24.80;;;10.53;;
15818;SDS011;8010;53.986;12.106;2023-02-11T06:38:44;19.30;;;10.13;;
15818;SDS011;8010;53.986;12.106;2023-02-11T06:41:11;22.93;;;10.43;;
15818;SDS011;8010;53.986;12.106;2023-02-11T06:43:38;21.90;;;9.60;;
15818;SDS011;8010;53.986;12.106;2023-02-11T06:46:04;20.33;;;11.47;;
15818;SDS011;8010;53.986;12.106;2023-02-11T06:48:31;23.80;;;8.33;;
15818;SDS011;8010;53.986;12.106;2023-02-11T06:51:00;21.87;;;9.30;;
15818;SDS011;8010;53.986;12.106;2023-02-11T06:53:29;20.47;;;9.30;;
15818;SDS011;8010;53.986;12.106;2023-02-11T06:56:00;22.13;;;10.90;;
15818;SDS011;8010;53.986;12.106;2023-02-11T06:58:29;16.07;;;8.50;;
15818;SDS011;8010;53.986;12.106;2023-02-11T07:00:55;17.23;;;10.30;;
15818;SDS011;8010;53.986;12.106;2023-02-11T07:03:21;21.13;;;9.27;;
15818;SDS011;8010;53.986;12.106;2023-02-11T07:05:47;25.83;;;10.27;;
15818;SDS011;8010;53.986;12.106;2023-02-11T07:08:12;25.37;;;9.33;;
15818;SDS011;8010;53.986;12.106;2023-02-11T07:10:38;17.87;;;8.37;;
15818;SDS011;8010;53.986;12.106;2023-02-11T07:13:04;16.77;;;9.30;;
15818;SDS011;8010;53.986;12.106;2023-02-11T07:15:29;20.30;;;9.03;;
15818;SDS011;8010;53.986;12.106;2023-02-11T07:17:55;18.13;;;9.13;;
15818;SDS011;8010;53.986;12.106;2023-02-11T07:20:20;21.30;;;8.53;;
15818;SDS011;8010;53.986;12.106;2023-02-11T07:22:46;17.80;;;7.23;;
15818;SDS011;8010;53.986;12.106;2023-02-11T07:25:11;17.03;;;7.67;;
15818;SDS011;8010;53.986;12.106;2023-02-11T07:27:37;19.47;;;7.80;;
15818;SDS011;8010;53.986;12.106;2023-02-11T07:30:03;14.33;;;6.70;;
15818;SDS011;8010;53.986;12.106;2023-02-11T07:32:28;16.97;;;8.13;;
15818;SDS011;8010;53.986;12.106;2023-02-11T07:34:54;15.50;;;6.00;;
15818;SDS011;8010;53.986;12.106;2023-02-11T07:37:20;13.57;;;5.93;;
15818;SDS011;8010;53.986;12.106;2023-02-11T07:39:45;19.43;;;7.43;;
15818;SDS011;8010;53.986;12.106;2023-02-11T07:42:11;13.67;;;5.40;;
15818;SDS011;8010;53.986;12.106;2023-02-11T07:44:36;13.70;;;6.37;;
15818;SDS011;8010;53.986;12.106;2023-02-11T07:47:02;12.40;;;5.43;;
15818;SDS011;8010;53.986;12.106;2023-02-11T07:49:28;8.10;;;4.20;;
15818;SDS011;8010;53.986;12.106;2023-02-11T07:51:53;11.47;;;5.00;;
15818;SDS011;8010;53.986;12.106;2023-02-11T07:54:19;17.37;;;6.40;;
15818;SDS011;8010;53.986;12.106;2023-02-11T07:56:44;12.43;;;5.40;;
15818;SDS011;8010;53.986;12.106;2023-02-11T07:59:10;14.60;;;5.57;;
15818;SDS011;8010;53.986;12.106;2023-02-11T08:01:36;8.27;;;4.67;;
15818;SDS011;8010;53.986;12.106;2023-02-11T08:04:02;11.97;;;5.07;;
15818;SDS011;8010;53.986;12.106;2023-02-11T08:06:30;12.00;;;5.40;;
15818;SDS011;8010;53.986;12.106;2023-02-11T08:09:02;14.43;;;4.80;;
15818;SDS011;8010;53.986;12.106;2023-02-11T08:11:29;9.20;;;5.27;;
15818;SDS011;8010;53.986;12.106;2023-02-11T08:13:55;9.50;;;4.20;;
15818;SDS011;8010;53.986;12.106;2023-02-11T08:16:31;8.37;;;4.00;;
15818;SDS011;8010;53.986;12.106;2023-02-11T08:19:00;14.37;;;6.03;;
15818;SDS011;8010;53.986;12.106;2023-02-11T08:21:28;16.20;;;5.70;;
15818;SDS011;8010;53.986;12.106;2023-02-11T08:23:54;14.57;;;5.30;;
15818;SDS011;8010;53.986;12.106;2023-02-11T08:26:21;13.97;;;6.17;;
15818;SDS011;8010;53.986;12.106;2023-02-11T08:28:49;13.83;;;5.73;;
15818;SDS011;8010;53.986;12.106;2023-02-11T08:31:26;11.90;;;5.33;;
15818;SDS011;8010;53.986;12.106;2023-02-11T08:33:53;11.33;;;4.80;;
15818;SDS011;8010;53.986;12.106;2023-02-11T08:36:22;7.93;;;4.30;;
15818;SDS011;8010;53.986;12.106;2023-02-11T08:38:50;11.70;;;5.10;;
15818;SDS011;8010;53.986;12.106;2023-02-11T08:41:16;13.77;;;5.47;;
15818;SDS011;8010;53.986;12.106;2023-02-11T08:43:42;11.67;;;4.60;;
15818;SDS011;8010;53.986;12.106;2023-02-11T08:46:10;9.90;;;5.00;;
15818;SDS011;8010;53.986;12.106;2023-02-11T08:48:38;11.50;;;5.73;;
15818;SDS011;8010;53.986;12.106;2023-02-11T08:51:07;9.13;;;4.57;;
15818;SDS011;8010;53.986;12.106;2023-02-11T08:53:34;16.50;;;6.37;;
15818;SDS011;8010;53.986;12.106;2023-02-11T08:56:00;12.03;;;5.70;;
15818;SDS011;8010;53.986;12.106;2023-02-11T08:58:26;14.80;;;5.00;;
15818;SDS011;8010;53.986;12.106;2023-02-11T09:00:52;14.33;;;5.90;;
15818;SDS011;8010;53.986;12.106;2023-02-11T09:03:17;10.80;;;4.70;;
15818;SDS011;8010;53.986;12.106;2023-02-11T09:05:47;10.47;;;5.00;;
15818;SDS011;8010;53.986;12.106;2023-02-11T09:08:17;16.20;;;5.23;;
15818;SDS011;8010;53.986;12.106;2023-02-11T09:10:44;11.67;;;4.97;;
15818;SDS011;8010;53.986;12.106;2023-02-11T09:13:09;10.70;;;4.77;;
15818;SDS011;8010;53.986;12.106;2023-02-11T09:15:35;14.70;;;5.73;;
15818;SDS011;8010;53.986;12.106;2023-02-11T09:18:01;11.97;;;5.20;;
15818;SDS011;8010;53.986;12.106;2023-02-11T09:20:27;16.77;;;5.87;;
15818;SDS011;8010;53.986;12.106;2023-02-11T09:22:53;14.57;;;5.70;;
15818;SDS011;8010;53.986;12.106;2023-02-11T09:25:22;15.07;;;5.60;;
15818;SDS011;8010;53.986;12.106;2023-02-11T09:27:48;9.50;;;4.63;;
15818;SDS011;8010;53.986;12.106;2023-02-11T09:30:15;13.07;;;6.83;;
15818;SDS011;8010;53.986;12.106;2023-02-11T09:32:41;10.30;;;5.20;;
15818;SDS011;8010;53.986;12.106;2023-02-11T09:35:06;13.73;;;4.80;;
15818;SDS011;8010;53.986;12.106;2023-02-11T09:37:32;12.67;;;5.43;;
15818;SDS011;8010;53.986;12.106;2023-02-11T09:39:57;10.90;;;6.03;;
15818;SDS011;8010;53.986;12.106;2023-02-11T09:45:27;9.83;;;4.20;;
15818;SDS011;8010;53.986;12.106;2023-02-11T09:48:01;11.67;;;4.63;;
15818;SDS011;8010;53.986;12.106;2023-02-11T09:53:04;10.37;;;4.87;;
15818;SDS011;8010;53.986;12.106;2023-02-11T09:55:50;13.60;;;4.70;;
15818;SDS011;8010;53.986;12.106;2023-02-11T10:03:49;11.27;;;5.10;;
15818;SDS011;8010;53.986;12.106;2023-02-11T10:12:10;9.37;;;4.73;;
15818;SDS011;8010;53.986;12.106;2023-02-11T10:23:00;13.13;;;4.47;;
15818;SDS011;8010;53.986;12.106;2023-02-11T10:25:35;12.87;;;4.73;;
15818;SDS011;8010;53.986;12.106;2023-02-11T10:30:40;11.17;;;5.20;;
15818;SDS011;8010;53.986;12.106;2023-02-11T10:33:19;10.77;;;3.90;;
15818;SDS011;8010;53.986;12.106;2023-02-11T10:35:50;11.73;;;4.40;;
15818;SDS011;8010;53.986;12.106;2023-02-11T10:38:16;9.37;;;3.80;;
15818;SDS011;8010;53.986;12.106;2023-02-11T10:40:41;7.93;;;3.20;;
15818;SDS011;8010;53.986;12.106;2023-02-11T10:43:11;10.47;;;3.93;;
15818;SDS011;8010;53.986;12.106;2023-02-11T10:45:52;10.53;;;4.00;;
15818;SDS011;8010;53.986;12.106;2023-02-11T10:53:42;5.57;;;2.93;;
15818;SDS011;8010;53.986;12.106;2023-02-11T10:56:10;9.20;;;3.63;;
15818;SDS011;8010;53.986;12.106;2023-02-11T10:58:44;10.57;;;3.17;;
15818;SDS011;8010;53.986;12.106;2023-02-11T11:01:18;6.87;;;3.37;;
15818;SDS011;8010;53.986;12.106;2023-02-11T11:03:49;14.67;;;3.50;;
15818;SDS011;8010;53.986;12.106;2023-02-11T11:06:16;9.27;;;3.60;;
15818;SDS011;8010;53.986;12.106;2023-02-11T11:08:54;8.90;;;2.93;;
15818;SDS011;8010;53.986;12.106;2023-02-11T11:11:21;6.93;;;3.77;;
15818;SDS011;8010;53.986;12.106;2023-02-11T11:18:49;8.83;;;3.80;;
15818;SDS011;8010;53.986;12.106;2023-02-11T11:21:42;6.00;;;2.80;;
15818;SDS011;8010;53.986;12.106;2023-02-11T11:26:49;5.60;;;3.03;;
15818;SDS011;8010;53.986;12.106;2023-02-11T11:34:50;9.93;;;3.67;;
15818;SDS011;8010;53.986;12.106;2023-02-11T11:37:27;6.33;;;3.00;;
15818;SDS011;8010;53.986;12.106;2023-02-11T11:39:56;7.57;;;2.87;;
15818;SDS011;8010;53.986;12.106;2023-02-11T11:42:34;4.47;;;2.43;;
15818;SDS011;8010;53.986;12.106;2023-02-11T11:47:51;6.00;;;3.00;;
15818;SDS011;8010;53.986;12.106;2023-02-11T11:52:59;7.30;;;2.67;;
15818;SDS011;8010;53.986;12.106;2023-02-11T11:55:44;9.30;;;3.37;;
15818;SDS011;8010;53.986;12.106;2023-02-11T11:58:20;10.47;;;3.60;;
15818;SDS011;8010;53.986;12.106;2023-02-11T12:06:38;14.63;;;4.33;;
15818;SDS011;8010;53.986;12.106;2023-02-11T12:14:42;9.53;;;3.30;;
15818;SDS011;8010;53.986;12.106;2023-02-11T12:20:15;9.27;;;3.13;;
15818;SDS011;8010;53.986;12.106;2023-02-11T12:28:30;5.43;;;3.47;;
15818;SDS011;8010;53.986;12.106;2023-02-11T12:37:03;7.97;;;2.90;;
15818;SDS011;8010;53.986;12.106;2023-02-11T12:39:50;8.03;;;3.03;;
15818;SDS011;8010;53.986;12.106;2023-02-11T12:42:38;8.93;;;3.00;;
15818;SDS011;8010;53.986;12.106;2023-02-11T12:45:35;7.80;;;2.40;;
15818;SDS011;8010;53.986;12.106;2023-02-11T12:53:54;8.87;;;3.00;;
15818;SDS011;8010;53.986;12.106;2023-02-11T12:56:30;8.83;;;2.83;;
15818;SDS011;8010;53.986;12.106;2023-02-11T12:59:11;7.80;;;2.47;;
15818;SDS011;8010;53.986;12.106;2023-02-11T13:01:41;5.23;;;2.40;;
15818;SDS011;8010;53.986;12.106;2023-02-11T13:04:13;7.20;;;2.30;;
15818;SDS011;8010;53.986;12.106;2023-02-11T13:07:09;8.37;;;2.00;;
15818;SDS011;8010;53.986;12.106;2023-02-11T13:09:48;6.90;;;2.30;;
15818;SDS011;8010;53.986;12.106;2023-02-11T13:12:18;3.63;;;1.70;;
15818;SDS011;8010;53.986;12.106;2023-02-11T13:15:05;6.07;;;2.13;;
15818;SDS011;8010;53.986;12.106;2023-02-11T13:17:39;5.80;;;1.60;;
15818;SDS011;8010;53.986;12.106;2023-02-11T13:20:31;6.77;;;1.50;;
15818;SDS011;8010;53.986;12.106;2023-02-11T13:23:07;3.90;;;1.63;;
15818;SDS011;8010;53.986;12.106;2023-02-11T13:25:43;7.53;;;1.27;;
15818;SDS011;8010;53.986;12.106;2023-02-11T13:28:24;3.03;;;1.00;;
15818;SDS011;8010;53.986;12.106;2023-02-11T13:30:56;5.10;;;1.97;;
15818;SDS011;8010;53.986;12.106;2023-02-11T13:33:31;6.10;;;1.20;;
15818;SDS011;8010;53.986;12.106;2023-02-11T13:38:24;4.50;;;1.43;;
15818;SDS011;8010;53.986;12.106;2023-02-11T13:41:01;3.93;;;1.00;;
15818;SDS011;8010;53.986;12.106;2023-02-11T13:43:39;6.00;;;1.20;;
15818;SDS011;8010;53.986;12.106;2023-02-11T13:46:05;9.47;;;1.87;;
15818;SDS011;8010;53.986;12.106;2023-02-11T13:48:50;7.53;;;1.50;;
15818;SDS011;8010;53.986;12.106;2023-02-11T13:51:18;3.77;;;1.30;;
15818;SDS011;8010;53.986;12.106;2023-02-11T13:54:04;3.67;;;1.23;;
15818;SDS011;8010;53.986;12.106;2023-02-11T13:56:35;6.53;;;1.40;;
15818;SDS011;8010;53.986;12.106;2023-02-11T13:59:04;5.27;;;1.43;;
15818;SDS011;8010;53.986;12.106;2023-02-11T14:04:34;3.33;;;0.90;;
15818;SDS011;8010;53.986;12.106;2023-02-11T14:07:31;5.27;;;1.33;;
15818;SDS011;8010;53.986;12.106;2023-02-11T14:16:21;2.90;;;0.90;;
15818;SDS011;8010;53.986;12.106;2023-02-11T14:32:25;4.97;;;1.30;;
15818;SDS011;8010;53.986;12.106;2023-02-11T14:42:45;4.43;;;1.10;;
15818;SDS011;8010;53.986;12.106;2023-02-11T14:45:15;4.07;;;1.03;;
15818;SDS011;8010;53.986;12.106;2023-02-11T14:47:49;3.97;;;0.90;;
15818;SDS011;8010;53.986;12.106;2023-02-11T14:50:26;5.77;;;1.20;;
15818;SDS011;8010;53.986;12.106;2023-02-11T14:53:04;3.40;;;0.90;;
15818;SDS011;8010;53.986;12.106;2023-02-11T14:55:35;5.47;;;1.37;;
15818;SDS011;8010;53.986;12.106;2023-02-11T14:58:05;2.80;;;0.90;;
15818;SDS011;8010;53.986;12.106;2023-02-11T15:00:46;8.17;;;1.23;;
15818;SDS011;8010;53.986;12.106;2023-02-11T15:03:25;3.90;;;0.87;;
15818;SDS011;8010;53.986;12.106;2023-02-11T15:05:56;4.03;;;0.90;;
15818;SDS011;8010;53.986;12.106;2023-02-11T15:08:47;2.30;;;0.60;;
15818;SDS011;8010;53.986;12.106;2023-02-11T15:11:25;3.30;;;1.40;;
15818;SDS011;8010;53.986;12.106;2023-02-11T15:13:53;4.63;;;1.20;;
15818;SDS011;8010;53.986;12.106;2023-02-11T15:16:23;4.77;;;0.97;;
15818;SDS011;8010;53.986;12.106;2023-02-11T15:18:55;5.33;;;1.10;;
15818;SDS011;8010;53.986;12.106;2023-02-11T15:21:25;7.33;;;1.20;;
15818;SDS011;8010;53.986;12.106;2023-02-11T15:23:55;5.03;;;1.10;;
15818;SDS011;8010;53.986;12.106;2023-02-11T15:26:25;5.87;;;0.93;;
15818;SDS011;8010;53.986;12.106;2023-02-11T15:28:52;5.73;;;0.90;;
15818;SDS011;8010;53.986;12.106;2023-02-11T15:31:19;6.03;;;1.37;;
15818;SDS011;8010;53.986;12.106;2023-02-11T15:33:47;5.00;;;1.20;;
15818;SDS011;8010;53.986;12.106;2023-02-11T15:36:14;4.97;;;1.17;;
15818;SDS011;8010;53.986;12.106;2023-02-11T15:38:40;5.27;;;1.27;;
15818;SDS011;8010;53.986;12.106;2023-02-11T15:41:06;4.80;;;1.13;;
15818;SDS011;8010;53.986;12.106;2023-02-11T15:43:52;4.20;;;1.43;;
15818;SDS011;8010;53.986;12.106;2023-02-11T15:46:19;5.13;;;1.70;;
15818;SDS011;8010;53.986;12.106;2023-02-11T15:48:48;4.13;;;1.23;;
15818;SDS011;8010;53.986;12.106;2023-02-11T15:53:51;3.73;;;1.03;;
15818;SDS011;8010;53.986;12.106;2023-02-11T15:56:41;4.93;;;1.43;;
15818;SDS011;8010;53.986;12.106;2023-02-11T15:59:30;4.97;;;2.07;;
15818;SDS011;8010;53.986;12.106;2023-02-11T16:02:12;4.70;;;1.13;;
15818;SDS011;8010;53.986;12.106;2023-02-11T16:07:49;7.73;;;1.57;;
15818;SDS011;8010;53.986;12.106;2023-02-11T16:12:49;2.50;;;1.00;;
15818;SDS011;8010;53.986;12.106;2023-02-11T16:15:42;6.00;;;1.00;;
15818;SDS011;8010;53.986;12.106;2023-02-11T16:18:14;5.30;;;1.23;;
15818;SDS011;8010;53.986;12.106;2023-02-11T16:20:50;2.50;;;1.00;;
15818;SDS011;8010;53.986;12.106;2023-02-11T16:23:23;6.47;;;1.23;;
15818;SDS011;8010;53.986;12.106;2023-02-11T16:26:06;3.27;;;1.10;;
15818;SDS011;8010;53.986;12.106;2023-02-11T16:28:36;6.30;;;1.07;;
15818;SDS011;8010;53.986;12.106;2023-02-11T16:31:03;7.60;;;1.27;;
15818;SDS011;8010;53.986;12.106;2023-02-11T16:33:29;7.67;;;1.53;;
15818;SDS011;8010;53.986;12.106;2023-02-11T16:35:55;7.67;;;1.00;;
15818;SDS011;8010;53.986;12.106;2023-02-11T16:38:21;5.70;;;1.17;;
15818;SDS011;8010;53.986;12.106;2023-02-11T16:40:47;4.70;;;1.40;;
15818;SDS011;8010;53.986;12.106;2023-02-11T16:43:15;3.63;;;1.53;;
15818;SDS011;8010;53.986;12.106;2023-02-11T16:45:43;8.93;;;1.63;;
15818;SDS011;8010;53.986;12.106;2023-02-11T16:48:08;3.40;;;0.90;;
15818;SDS011;8010;53.986;12.106;2023-02-11T16:50:40;6.03;;;0.80;;
15818;SDS011;8010;53.986;12.106;2023-02-11T16:53:10;8.70;;;1.70;;
15818;SDS011;8010;53.986;12.106;2023-02-11T16:55:36;6.33;;;1.47;;
15818;SDS011;8010;53.986;12.106;2023-02-11T16:58:01;7.23;;;1.50;;
15818;SDS011;8010;53.986;12.106;2023-02-11T17:00:27;7.60;;;1.50;;
15818;SDS011;8010;53.986;12.106;2023-02-11T17:02:53;9.20;;;1.43;;
15818;SDS011;8010;53.986;12.106;2023-02-11T17:05:19;3.00;;;1.00;;
15818;SDS011;8010;53.986;12.106;2023-02-11T17:07:49;6.47;;;1.57;;
15818;SDS011;8010;53.986;12.106;2023-02-11T17:10:17;9.63;;;1.30;;
15818;SDS011;8010;53.986;12.106;2023-02-11T17:12:45;8.20;;;1.67;;
15818;SDS011;8010;53.986;12.106;2023-02-11T17:15:11;8.23;;;1.47;;
15818;SDS011;8010;53.986;12.106;2023-02-11T17:17:37;6.57;;;1.50;;
15818;SDS011;8010;53.986;12.106;2023-02-11T17:20:03;7.57;;;1.60;;
15818;SDS011;8010;53.986;12.106;2023-02-11T17:22:29;6.50;;;1.30;;
15818;SDS011;8010;53.986;12.106;2023-02-11T17:24:55;6.43;;;1.90;;
15818;SDS011;8010;53.986;12.106;2023-02-11T17:27:21;8.43;;;1.80;;
15818;SDS011;8010;53.986;12.106;2023-02-11T17:29:47;7.03;;;1.70;;
15818;SDS011;8010;53.986;12.106;2023-02-11T17:32:13;3.63;;;1.37;;